createdAt,value
2022-10-05T00:00:48.733Z,83.26
2022-10-05T00:03:36.884Z,83.21
2022-10-05T00:06:05.044Z,83.25
2022-10-05T00:08:36.221Z,83.13
2022-10-05T00:11:07.452Z,83.26
2022-10-05T00:13:35.291Z,83.20
2022-10-05T00:16:16.905Z,83.26
2022-10-05T00:18:51.327Z,83.57
2022-10-05T00:21:25.504Z,83.53
2022-10-05T00:23:56.475Z,83.65
2022-10-05T00:26:27.110Z,83.60
2022-10-05T00:28:55.405Z,83.71
2022-10-05T00:31:30.657Z,83.65
2022-10-05T00:33:58.967Z,83.61
2022-10-05T00:36:26.839Z,83.74
2022-10-05T00:38:55.423Z,83.81
2022-10-05T00:41:42.238Z,84.02
2022-10-05T00:44:41.828Z,83.84
2022-10-05T00:47:28.359Z,84.21
2022-10-05T00:50:11.950Z,83.84
2022-10-05T00:52:58.025Z,84.34
2022-10-05T00:55:57.677Z,84.20
2022-10-05T00:59:01.618Z,84.35
2022-10-05T01:01:41.245Z,84.42
2022-10-05T01:04:14.859Z,84.38
2022-10-05T01:06:42.710Z,84.45
2022-10-05T01:09:29.862Z,84.60
2022-10-05T01:12:28.483Z,84.74
2022-10-05T01:15:12.105Z,84.60
2022-10-05T01:17:43.029Z,84.61
2022-10-05T01:20:27.281Z,84.64
2022-10-05T01:23:13.524Z,84.83
2022-10-05T01:25:51.555Z,85.00
2022-10-05T01:28:28.514Z,84.93
2022-10-05T01:31:01.899Z,84.89
2022-10-05T01:33:50.650Z,84.96
2022-10-05T01:36:34.299Z,85.27
2022-10-05T01:39:22.270Z,85.45
2022-10-05T01:42:25.877Z,85.38
2022-10-05T01:45:15.738Z,85.55
2022-10-05T01:47:47.329Z,85.44
2022-10-05T01:50:33.764Z,85.37
2022-10-05T01:53:12.819Z,85.57
2022-10-05T01:55:52.305Z,85.27
2022-10-05T01:58:39.695Z,85.57
2022-10-05T02:01:30.810Z,85.55
2022-10-05T02:04:09.034Z,85.46
2022-10-05T02:06:42.070Z,85.78
2022-10-05T02:09:28.914Z,85.72
2022-10-05T02:12:15.536Z,85.96
2022-10-05T02:14:47.484Z,86.16
2022-10-05T02:17:19.490Z,86.05
2022-10-05T02:20:01.877Z,86.46
2022-10-05T02:22:35.548Z,86.73
2022-10-05T02:25:09.769Z,86.73
2022-10-05T02:27:45.726Z,86.40
2022-10-05T02:30:16.915Z,86.53
2022-10-05T02:32:54.769Z,86.60
2022-10-05T02:35:23.602Z,86.88
2022-10-05T02:38:07.757Z,86.93
2022-10-05T02:40:50.053Z,86.67
2022-10-05T02:43:34.568Z,86.85
2022-10-05T02:46:10.804Z,86.97
2022-10-05T02:48:56.823Z,86.86
2022-10-05T02:51:58.130Z,87.22
2022-10-05T02:54:47.341Z,87.10
2022-10-05T02:57:38.956Z,87.09
2022-10-05T03:00:15.440Z,87.30
2022-10-05T03:02:57.632Z,87.44
2022-10-05T03:05:35.444Z,87.27
2022-10-05T03:08:16.401Z,87.36
2022-10-05T03:11:06.709Z,87.66
2022-10-05T03:13:58.256Z,87.40
2022-10-05T03:16:42.163Z,87.58
2022-10-05T03:19:26.030Z,87.56
2022-10-05T03:22:15.789Z,87.83
2022-10-05T03:24:52.825Z,87.71
2022-10-05T03:27:50.693Z,87.56
2022-10-05T03:30:22.806Z,87.75
2022-10-05T03:32:54.774Z,87.75
2022-10-05T03:35:38.799Z,87.66
2022-10-05T03:38:30.116Z,87.75
2022-10-05T03:41:07.506Z,88.03
2022-10-05T03:44:00.226Z,87.79
2022-10-05T03:46:47.145Z,88.01
2022-10-05T03:49:31.207Z,88.19
2022-10-05T03:52:09.946Z,88.23
2022-10-05T03:54:53.655Z,88.30
2022-10-05T03:57:23.191Z,88.21
2022-10-05T04:00:04.898Z,88.41
2022-10-05T04:03:01.569Z,88.66
2022-10-05T04:05:51.908Z,88.75
2022-10-05T04:08:35.251Z,88.79
2022-10-05T04:11:16.130Z,88.61
2022-10-05T04:13:54.735Z,88.59
2022-10-05T04:16:28.211Z,88.79
2022-10-05T04:19:13.847Z,88.77
2022-10-05T04:21:59.042Z,88.68
2022-10-05T04:24:36.582Z,88.95
2022-10-05T04:27:22.790Z,89.11
2022-10-05T04:30:02.271Z,89.39
2022-10-05T04:32:42.480Z,89.32
2022-10-05T04:35:47.416Z,89.14
2022-10-05T04:38:24.239Z,89.20
2022-10-05T04:41:02.470Z,89.25
2022-10-05T04:44:00.627Z,89.27
2022-10-05T04:46:57.097Z,89.44
2022-10-05T04:49:40.832Z,89.53
2022-10-05T04:52:27.294Z,89.34
2022-10-05T04:55:14.385Z,89.15
2022-10-05T04:58:14.069Z,89.63
2022-10-05T05:00:54.367Z,89.49
2022-10-05T05:03:44.297Z,89.78
2022-10-05T05:06:44.564Z,89.63
2022-10-05T05:09:33.320Z,89.72
2022-10-05T05:12:10.999Z,89.61
2022-10-05T05:14:55.559Z,89.79
2022-10-05T05:17:42.312Z,89.97
2022-10-05T05:20:42.101Z,89.79
2022-10-05T05:23:26.977Z,89.75
2022-10-05T05:26:11.258Z,90.03
2022-10-05T05:28:55.678Z,90.21
2022-10-05T05:31:39.555Z,90.37
2022-10-05T05:34:47.950Z,90.28
2022-10-05T05:37:47.819Z,90.11
2022-10-05T05:40:22.138Z,90.35
2022-10-05T05:43:19.833Z,90.23
2022-10-05T05:45:59.062Z,90.36
2022-10-05T05:49:28.721Z,90.20
2022-10-05T05:52:03.556Z,90.21
2022-10-05T05:54:40.951Z,90.83
2022-10-05T05:57:24.657Z,90.62
2022-10-05T05:59:57.645Z,90.92
2022-10-05T06:02:35.320Z,90.53
2022-10-05T06:05:09.948Z,90.59
2022-10-05T06:07:38.603Z,90.92
2022-10-05T06:10:20.631Z,91.13
2022-10-05T06:13:06.444Z,90.84
2022-10-05T06:15:41.462Z,90.64
2022-10-05T06:18:23.921Z,91.21
2022-10-05T06:21:08.543Z,90.94
2022-10-05T06:23:45.134Z,91.12
2022-10-05T06:26:45.491Z,90.94
2022-10-05T06:29:22.722Z,91.42
2022-10-05T06:32:15.767Z,91.28
2022-10-05T06:34:46.658Z,91.13
2022-10-05T06:37:51.059Z,91.50
2022-10-05T06:40:50.745Z,91.39
2022-10-05T06:43:34.883Z,91.40
2022-10-05T06:46:23.651Z,91.45
2022-10-05T06:49:25.114Z,91.46
2022-10-05T06:52:40.380Z,91.29
2022-10-05T06:55:24.341Z,91.29
2022-10-05T06:58:22.015Z,91.25
2022-10-05T07:01:00.676Z,91.04
2022-10-05T07:03:40.662Z,91.04
2022-10-05T07:06:28.014Z,91.11
2022-10-05T07:09:21.917Z,90.90
2022-10-05T07:12:08.789Z,90.95
2022-10-05T07:14:51.640Z,90.96
2022-10-05T07:17:26.351Z,90.83
2022-10-05T07:20:12.217Z,90.80
2022-10-05T07:22:46.425Z,90.77
2022-10-05T07:25:22.944Z,90.70
2022-10-05T07:27:59.407Z,90.53
2022-10-05T07:30:28.654Z,90.48
2022-10-05T07:33:13.793Z,90.52
2022-10-05T07:36:23.600Z,90.22
2022-10-05T07:39:13.410Z,90.25
2022-10-05T07:41:59.064Z,90.31
2022-10-05T07:44:37.358Z,90.26
2022-10-05T07:47:15.613Z,90.21
2022-10-05T07:49:54.453Z,89.88
2022-10-05T07:52:39.768Z,89.95
2022-10-05T07:55:31.326Z,90.05
2022-10-05T07:58:31.242Z,89.72
2022-10-05T08:01:03.009Z,89.70
2022-10-05T08:03:47.044Z,89.82
2022-10-05T08:06:44.643Z,89.57
2022-10-05T08:09:17.601Z,89.50
2022-10-05T08:12:06.436Z,89.62
2022-10-05T08:14:40.022Z,89.47
2022-10-05T08:17:45.389Z,89.40
2022-10-05T08:20:29.967Z,89.32
2022-10-05T08:23:30.134Z,89.23
2022-10-05T08:26:13.832Z,88.81
2022-10-05T08:28:57.521Z,88.78
2022-10-05T08:31:29.942Z,88.85
2022-10-05T08:34:36.632Z,88.83
2022-10-05T08:37:18.122Z,88.67
2022-10-05T08:40:11.773Z,88.53
2022-10-05T08:42:45.397Z,88.27
2022-10-05T08:45:31.802Z,88.05
2022-10-05T08:48:33.611Z,87.70
2022-10-05T08:51:27.197Z,87.66
2022-10-05T08:54:26.798Z,87.54
2022-10-05T08:57:35.609Z,86.93
2022-10-05T09:03:34.891Z,87.27
2022-10-05T09:06:05.793Z,87.13
2022-10-05T09:09:06.863Z,86.79
2022-10-05T09:11:52.122Z,86.66
2022-10-05T09:14:39.384Z,86.81
2022-10-05T09:17:23.610Z,86.28
2022-10-05T09:20:17.264Z,86.48
2022-10-05T09:22:51.101Z,86.39
2022-10-05T09:25:50.879Z,86.15
2022-10-05T09:28:23.043Z,85.92
2022-10-05T09:30:59.132Z,86.14
2022-10-05T09:33:53.203Z,86.15
2022-10-05T09:36:36.786Z,85.75
2022-10-05T09:39:36.416Z,85.50
2022-10-05T09:42:20.372Z,85.56
2022-10-05T09:45:31.244Z,85.61
2022-10-05T09:48:17.679Z,85.52
2022-10-05T09:50:45.368Z,85.00
2022-10-05T09:53:45.223Z,85.24
2022-10-05T09:59:28.045Z,84.79
2022-10-05T10:02:17.660Z,84.91
2022-10-05T10:05:05.586Z,84.55
2022-10-05T10:07:51.802Z,84.43
2022-10-05T10:10:53.022Z,83.89
2022-10-05T10:13:35.616Z,84.18
2022-10-05T10:16:35.246Z,83.85
2022-10-05T10:19:09.865Z,83.05
2022-10-05T10:22:10.172Z,83.02
2022-10-05T10:25:04.429Z,82.73
2022-10-05T10:28:04.163Z,82.35
2022-10-05T10:31:08.415Z,82.10
2022-10-05T10:34:08.228Z,81.86
2022-10-05T10:36:45.181Z,82.19
2022-10-05T10:39:45.192Z,81.64
2022-10-05T10:42:33.986Z,81.32
2022-10-05T10:45:19.288Z,81.39
2022-10-05T10:47:53.067Z,81.64
2022-10-05T10:50:39.568Z,81.53
2022-10-05T10:53:36.311Z,81.10
2022-10-05T10:56:30.112Z,80.73
2022-10-05T10:59:31.633Z,80.45
2022-10-05T11:02:18.726Z,80.59
2022-10-05T11:05:18.603Z,80.59
2022-10-05T11:07:55.206Z,80.28
2022-10-05T11:10:38.945Z,80.41
2022-10-05T11:13:16.884Z,79.93
2022-10-05T11:19:07.373Z,79.21
2022-10-05T11:21:44.263Z,79.26
2022-10-05T11:24:20.782Z,79.50
2022-10-05T11:26:51.630Z,79.18
2022-10-05T11:29:35.450Z,79.01
2022-10-05T11:32:35.190Z,78.72
2022-10-05T11:35:18.960Z,78.66
2022-10-05T11:38:02.583Z,78.88
2022-10-05T11:40:55.147Z,78.76
2022-10-05T11:43:38.779Z,78.61
2022-10-05T11:46:22.430Z,78.72
2022-10-05T11:49:04.337Z,78.76
2022-10-05T11:51:37.895Z,78.63
2022-10-05T11:54:27.210Z,78.38
2022-10-05T11:57:11.460Z,78.29
2022-10-05T11:59:49.320Z,78.51
2022-10-05T12:02:38.860Z,78.32
2022-10-05T12:05:28.287Z,78.11
2022-10-05T12:08:16.727Z,78.42
2022-10-05T12:11:06.704Z,78.10
2022-10-05T12:13:53.169Z,77.99
2022-10-05T12:16:25.927Z,77.64
2022-10-05T12:19:08.448Z,77.86
2022-10-05T12:21:52.518Z,77.49
2022-10-05T12:24:36.286Z,77.16
2022-10-05T12:27:23.045Z,77.24
2022-10-05T12:30:12.280Z,76.61
2022-10-05T12:33:12.323Z,76.37
2022-10-05T12:36:00.554Z,76.25
2022-10-05T12:38:44.893Z,76.03
2022-10-05T12:41:32.005Z,75.77
2022-10-05T12:44:24.056Z,75.37
2022-10-05T12:47:17.144Z,75.48
2022-10-05T12:50:03.809Z,75.54
2022-10-05T12:53:03.415Z,75.64
2022-10-05T12:55:40.205Z,75.12
2022-10-05T12:58:41.054Z,75.41
2022-10-05T13:01:46.726Z,75.23
2022-10-05T13:04:46.939Z,75.37
2022-10-05T13:07:41.636Z,75.11
2022-10-05T13:10:35.281Z,74.79
2022-10-05T13:13:35.031Z,75.12
2022-10-05T13:16:17.998Z,75.07
2022-10-05T13:19:24.412Z,74.97
2022-10-05T13:22:01.118Z,75.05
2022-10-05T13:24:39.588Z,74.97
2022-10-05T13:27:23.656Z,75.01
2022-10-05T13:29:58.323Z,74.90
2022-10-05T13:32:45.497Z,74.80
2022-10-05T13:35:29.109Z,74.77
2022-10-05T13:38:02.807Z,74.79
2022-10-05T13:40:39.095Z,74.90
2022-10-05T13:43:21.387Z,75.04
2022-10-05T13:46:06.766Z,75.08
2022-10-05T13:48:57.592Z,75.07
2022-10-05T13:51:35.326Z,75.18
2022-10-05T13:54:23.022Z,74.96
2022-10-05T13:57:17.152Z,75.15
2022-10-05T13:59:53.671Z,75.29
2022-10-05T14:02:38.769Z,75.21
2022-10-05T14:05:23.821Z,75.15
2022-10-05T14:07:56.500Z,75.32
2022-10-05T14:10:41.827Z,75.35
2022-10-05T14:13:13.400Z,75.33
2022-10-05T14:15:42.351Z,75.31
2022-10-05T14:18:27.653Z,75.36
2022-10-05T14:21:08.618Z,75.32
2022-10-05T14:23:36.349Z,75.27
2022-10-05T14:26:37.061Z,75.44
2022-10-05T14:29:24.057Z,75.45
2022-10-05T14:31:55.242Z,75.54
2022-10-05T14:34:56.084Z,75.41
2022-10-05T14:37:31.110Z,75.45
2022-10-05T14:40:20.615Z,75.59
2022-10-05T14:42:49.871Z,75.51
2022-10-05T14:45:24.980Z,75.59
2022-10-05T14:48:02.389Z,75.58
2022-10-05T14:50:31.296Z,75.62
2022-10-05T14:53:16.982Z,75.58
2022-10-05T14:56:11.157Z,75.75
2022-10-05T14:59:01.743Z,75.74
2022-10-05T15:01:32.080Z,75.78
2022-10-05T15:04:13.853Z,75.82
2022-10-05T15:07:09.373Z,75.80
2022-10-05T15:10:08.961Z,75.90
2022-10-05T15:12:49.171Z,75.90
2022-10-05T15:15:42.691Z,76.07
2022-10-05T15:18:10.335Z,76.08
2022-10-05T15:21:04.520Z,76.16
2022-10-05T15:23:41.107Z,76.17
2022-10-05T15:26:29.725Z,76.21
2022-10-05T15:29:36.769Z,76.41
2022-10-05T15:32:22.949Z,76.43
2022-10-05T15:34:59.601Z,76.48
2022-10-05T15:37:44.745Z,76.63
2022-10-05T15:40:21.569Z,76.63
2022-10-05T15:42:54.378Z,76.83
2022-10-05T15:45:43.728Z,76.76
2022-10-05T15:48:20.556Z,77.06
2022-10-05T15:51:07.052Z,77.13
2022-10-05T15:54:18.266Z,77.41
2022-10-05T15:56:56.310Z,77.52
2022-10-05T15:59:34.887Z,77.50
2022-10-05T16:02:14.581Z,77.70
2022-10-05T16:05:05.969Z,77.78
2022-10-05T16:08:08.141Z,77.93
2022-10-05T16:10:43.698Z,78.02
2022-10-05T16:13:29.783Z,78.24
2022-10-05T16:16:30.492Z,78.35
2022-10-05T16:19:21.406Z,78.31
2022-10-05T16:22:07.808Z,78.48
2022-10-05T16:25:08.446Z,78.60
2022-10-05T16:28:02.990Z,78.82
2022-10-05T16:31:07.339Z,78.96
2022-10-05T16:33:52.851Z,79.15
2022-10-05T16:36:31.799Z,79.12
2022-10-05T16:39:14.105Z,79.21
2022-10-05T16:42:11.764Z,79.45
2022-10-05T16:45:06.865Z,79.28
2022-10-05T16:47:44.135Z,79.53
2022-10-05T16:50:21.701Z,79.58
2022-10-05T16:53:02.317Z,79.72
2022-10-05T16:55:41.965Z,80.02
2022-10-05T16:58:31.298Z,80.22
2022-10-05T17:01:21.237Z,80.31
2022-10-05T17:04:05.972Z,80.52
2022-10-05T17:06:48.665Z,80.52
2022-10-05T17:09:22.700Z,80.66
2022-10-05T17:12:10.301Z,80.80
2022-10-05T17:14:55.089Z,80.86
2022-10-05T17:17:38.097Z,80.88
2022-10-05T17:20:11.766Z,81.00
2022-10-05T17:22:59.515Z,81.15
2022-10-05T17:25:45.971Z,81.37
2022-10-05T17:28:24.172Z,81.51
2022-10-05T17:31:08.183Z,81.54
2022-10-05T17:33:55.807Z,81.53
2022-10-05T17:36:42.861Z,81.89
2022-10-05T17:39:16.851Z,81.95
2022-10-05T17:41:45.257Z,82.08
2022-10-05T17:44:19.514Z,82.01
2022-10-05T17:46:50.204Z,82.09
2022-10-05T17:49:39.546Z,82.31
2022-10-05T17:52:43.137Z,82.62
2022-10-05T17:55:38.257Z,82.86
2022-10-05T17:58:26.129Z,83.11
2022-10-05T18:00:56.828Z,82.94
2022-10-05T18:03:44.431Z,82.88
2022-10-05T18:06:37.307Z,83.13
2022-10-05T18:09:20.967Z,83.27
2022-10-05T18:12:06.122Z,83.43
2022-10-05T18:15:06.255Z,83.53
2022-10-05T18:17:51.329Z,83.54
2022-10-05T18:20:28.629Z,83.84
2022-10-05T18:23:02.739Z,83.78
2022-10-05T18:25:52.191Z,83.71
2022-10-05T18:28:42.832Z,83.93
2022-10-05T18:31:30.621Z,84.21
2022-10-05T18:34:17.268Z,84.54
2022-10-05T18:36:57.597Z,84.41
2022-10-05T18:39:41.164Z,84.42
2022-10-05T18:42:31.167Z,84.54
2022-10-05T18:45:17.893Z,84.65
2022-10-05T18:48:15.696Z,84.65
2022-10-05T18:50:57.984Z,85.24
2022-10-05T18:53:51.231Z,84.85
2022-10-05T18:56:42.242Z,85.13
2022-10-05T18:59:25.847Z,85.10
2022-10-05T19:02:06.323Z,85.41
2022-10-05T19:05:00.473Z,85.68
2022-10-05T19:08:00.177Z,85.76
2022-10-05T19:10:45.784Z,85.64
2022-10-05T19:13:31.980Z,85.74
2022-10-05T19:16:32.234Z,85.95
2022-10-05T19:19:30.893Z,86.06
2022-10-05T19:22:16.026Z,86.00
2022-10-05T19:25:13.778Z,86.18
2022-10-05T19:28:13.451Z,86.44
2022-10-05T19:30:50.874Z,86.51
2022-10-05T19:33:50.595Z,86.48
2022-10-05T19:36:50.495Z,86.70
2022-10-05T19:39:48.139Z,86.84
2022-10-05T19:42:31.354Z,86.79
2022-10-05T19:45:15.035Z,86.85
2022-10-05T19:47:56.543Z,86.93
2022-10-05T19:50:24.169Z,86.92
2022-10-05T19:53:17.337Z,86.93
2022-10-05T19:55:47.244Z,86.93
2022-10-05T19:58:38.473Z,87.15
2022-10-05T20:01:06.983Z,87.24
2022-10-05T20:03:38.005Z,87.22
2022-10-05T20:06:08.085Z,87.44
2022-10-05T20:08:52.579Z,87.65
2022-10-05T20:11:21.367Z,87.76
2022-10-05T20:13:51.766Z,87.67
2022-10-05T20:16:47.001Z,87.79
2022-10-05T20:19:48.441Z,87.79
2022-10-05T20:22:37.932Z,87.77
2022-10-05T20:25:08.579Z,87.99
2022-10-05T20:27:42.123Z,87.93
2022-10-05T20:30:11.799Z,88.13
2022-10-05T20:32:39.504Z,88.31
2022-10-05T20:35:07.930Z,88.17
2022-10-05T20:37:36.852Z,88.29
2022-10-05T20:40:06.726Z,88.09
2022-10-05T20:42:34.884Z,88.39
2022-10-05T20:45:04.098Z,88.55
2022-10-05T20:47:33.080Z,88.51
2022-10-05T20:50:04.933Z,88.55
2022-10-05T20:52:32.669Z,88.50
2022-10-05T20:55:01.705Z,88.38
2022-10-05T20:57:29.757Z,88.56
2022-10-05T20:59:57.436Z,88.50
2022-10-05T21:02:25.225Z,88.61
2022-10-05T21:04:53.138Z,88.65
2022-10-05T21:07:21.636Z,88.76
2022-10-05T21:09:50.969Z,89.06
2022-10-05T21:12:18.696Z,88.95
2022-10-05T21:14:47.392Z,89.07
2022-10-05T21:17:15.064Z,89.00
2022-10-05T21:19:43.119Z,89.06
2022-10-05T21:22:10.839Z,89.14
2022-10-05T21:24:40.815Z,88.95
2022-10-05T21:27:10.234Z,88.97
2022-10-05T21:29:40.953Z,88.88
2022-10-05T21:32:11.735Z,89.18
2022-10-05T21:34:41.070Z,89.30
2022-10-05T21:37:09.213Z,89.31
2022-10-05T21:39:36.956Z,89.21
2022-10-05T21:42:04.756Z,89.28
2022-10-05T21:44:32.458Z,89.17
2022-10-05T21:47:01.121Z,89.28
2022-10-05T21:49:29.121Z,89.29
2022-10-05T21:51:58.707Z,89.38
2022-10-05T21:54:27.800Z,89.32
2022-10-05T21:56:57.193Z,89.42
2022-10-05T21:59:31.007Z,89.38
2022-10-05T22:01:58.970Z,89.50
2022-10-05T22:04:26.674Z,89.33
2022-10-05T22:06:55.730Z,89.51
2022-10-05T22:09:23.462Z,89.54
2022-10-05T22:11:51.502Z,89.43
2022-10-05T22:14:19.351Z,89.51
2022-10-05T22:16:47.147Z,89.54
2022-10-05T22:19:18.743Z,89.57
2022-10-05T22:21:46.577Z,89.69
2022-10-05T22:24:14.275Z,89.60
2022-10-05T22:26:45.830Z,89.49
2022-10-05T22:29:16.069Z,89.55
2022-10-05T22:31:48.629Z,89.67
2022-10-05T22:34:18.030Z,89.63
2022-10-05T22:36:47.330Z,89.51
2022-10-05T22:39:16.225Z,89.48
2022-10-05T22:41:43.949Z,89.56
2022-10-05T22:44:11.743Z,89.58
2022-10-05T22:46:39.725Z,89.68
2022-10-05T22:49:07.534Z,89.64
2022-10-05T22:51:35.335Z,89.71
2022-10-05T22:54:03.204Z,89.64
2022-10-05T22:56:30.920Z,89.78
2022-10-05T22:58:58.673Z,89.77
2022-10-05T23:01:27.225Z,89.87
2022-10-05T23:03:57.170Z,89.80
2022-10-05T23:06:27.981Z,89.82
2022-10-05T23:08:55.760Z,89.77
2022-10-05T23:11:26.384Z,89.90
2022-10-05T23:13:59.867Z,89.82
2022-10-05T23:16:28.143Z,89.87
2022-10-05T23:18:56.523Z,89.87
2022-10-05T23:21:27.154Z,89.92
2022-10-05T23:23:55.693Z,89.95
2022-10-05T23:26:25.448Z,89.90
2022-10-05T23:28:53.680Z,89.93
2022-10-05T23:31:23.764Z,90.01
2022-10-05T23:33:52.861Z,89.95
2022-10-05T23:36:27.588Z,90.01
2022-10-05T23:38:55.259Z,89.99
2022-10-05T23:41:23.606Z,90.02
2022-10-05T23:43:52.085Z,89.97
2022-10-05T23:46:19.978Z,90.06
2022-10-05T23:48:48.944Z,90.06
2022-10-05T23:51:17.238Z,90.08
2022-10-05T23:53:45.188Z,90.15
2022-10-05T23:56:13.296Z,90.10
2022-10-05T23:58:41.100Z,90.19
